Time;durP1;ratioP1;P1;durP2;ratioP2;P2;SDS_P1;SDS_P2;PMS_P1;PMS_P2;Temp;Humidity;BMP_temperature;BMP_pressure;BME280_temperature;BME280_humidity;BME280_pressure;Samples;Min_cycle;Max_cycle;Signal;HPM_P1;HPM_P2
2020/12/17 00:01:26;;;;;;;46.80;23.45;;;4.90;99.90;;;;;;5099757;28;20202;-63
2020/12/17 00:03:52;;;;;;;41.95;23.08;;;4.90;99.90;;;;;;5098507;28;20426;-61
2020/12/17 00:06:34;;;;;;;39.88;25.05;;;4.90;99.90;;;;;;5097711;28;20278;-63
2020/12/17 00:09:02;;;;;;;60.72;26.30;;;4.90;99.90;;;;;;5100590;28;20220;-61
2020/12/17 00:11:28;;;;;;;53.28;26.80;;;4.90;99.90;;;;;;5098984;28;20206;-61
2020/12/17 00:13:55;;;;;;;57.95;24.98;;;4.90;99.90;;;;;;5100183;28;20251;-63
2020/12/17 00:16:21;;;;;;;50.88;24.33;;;4.90;99.90;;;;;;5073932;28;20221;-62
2020/12/17 00:18:52;;;;;;;44.60;24.08;;;5.00;99.90;;;;;;5091355;28;20458;-62
2020/12/17 00:21:20;;;;;;;52.55;23.88;;;5.00;99.90;;;;;;5099997;28;20241;-61
2020/12/17 00:23:47;;;;;;;51.60;24.67;;;4.90;99.90;;;;;;5098409;28;20210;-62
2020/12/17 00:26:14;;;;;;;47.33;26.25;;;4.90;99.90;;;;;;5095995;28;20227;-63
2020/12/17 00:28:40;;;;;;;57.75;26.70;;;5.00;99.90;;;;;;5097399;28;20233;-61
2020/12/17 00:31:07;;;;;;;48.80;24.17;;;4.90;99.90;;;;;;5093106;28;20205;-62
2020/12/17 00:33:34;;;;;;;53.63;24.48;;;4.90;99.90;;;;;;5097498;28;20222;-61
2020/12/17 00:36:00;;;;;;;41.75;23.85;;;4.90;99.90;;;;;;5094490;28;20217;-63
2020/12/17 00:38:27;;;;;;;36.45;21.25;;;4.90;99.90;;;;;;5099080;28;20306;-62
2020/12/17 00:40:53;;;;;;;56.03;25.83;;;4.90;99.90;;;;;;5094509;28;20216;-62
2020/12/17 00:43:20;;;;;;;53.22;23.65;;;4.90;99.90;;;;;;5098633;28;20209;-62
2020/12/17 00:45:47;;;;;;;59.03;26.05;;;4.50;99.90;;;;;;5096825;28;20511;-62
2020/12/17 00:48:13;;;;;;;44.63;26.67;;;4.90;99.90;;;;;;5095185;28;20217;-62
2020/12/17 00:50:40;;;;;;;55.30;27.30;;;4.80;99.90;;;;;;5097060;28;20209;-61
2020/12/17 00:53:06;;;;;;;42.90;25.10;;;4.80;99.90;;;;;;5096002;28;20209;-62
2020/12/17 00:55:37;;;;;;;53.45;24.52;;;4.80;99.90;;;;;;5097032;28;20208;-62
2020/12/17 00:58:15;;;;;;;54.72;26.50;;;4.80;99.90;;;;;;5089082;28;20543;-61
2020/12/17 01:01:18;;;;;;;;;;;;;;;;;;;;;
2020/12/17 01:04:10;;;;;;;70.50;25.48;;;4.80;99.90;;;;;;5093905;28;20700;-61
2020/12/17 01:07:01;;;;;;;47.47;23.77;;;4.80;99.90;;;;;;5092273;28;20212;-61
2020/12/17 01:09:39;;;;;;;50.65;26.10;;;4.80;99.90;;;;;;5095986;28;20213;-61
2020/12/17 01:12:28;;;;;;;51.17;24.95;;;4.80;99.90;;;;;;5098488;28;20232;-61
2020/12/17 01:15:19;;;;;;;53.10;26.08;;;4.80;99.90;;;;;;5091935;28;20228;-62
2020/12/17 01:17:47;;;;;;;50.70;25.20;;;4.80;99.90;;;;;;5095660;28;20230;-62
2020/12/17 01:20:14;;;;;;;47.90;24.02;;;4.80;99.90;;;;;;5097647;28;20238;-62
2020/12/17 01:22:41;;;;;;;41.72;19.73;;;4.90;99.90;;;;;;5091375;28;20328;-62
2020/12/17 01:25:07;;;;;;;50.92;22.70;;;4.90;99.90;;;;;;5097540;28;20209;-62
2020/12/17 01:27:34;;;;;;;54.85;25.05;;;4.80;99.90;;;;;;5099733;28;20416;-62
2020/12/17 01:30:02;;;;;;;47.45;23.95;;;4.80;99.90;;;;;;5099915;28;20265;-62
2020/12/17 01:32:29;;;;;;;49.90;27.33;;;4.90;99.90;;;;;;5099039;28;20202;-62
2020/12/17 01:34:56;;;;;;;46.83;22.42;;;4.90;99.90;;;;;;5096754;28;20384;-62
2020/12/17 01:37:24;;;;;;;49.38;23.42;;;4.90;99.90;;;;;;5097721;28;20239;-62
2020/12/17 01:39:51;;;;;;;43.47;21.38;;;5.00;99.90;;;;;;5095881;28;20197;-61
2020/12/17 01:42:19;;;;;;;45.97;25.60;;;4.90;99.90;;;;;;5095013;28;20201;-62
2020/12/17 01:44:46;;;;;;;52.72;23.80;;;4.80;99.90;;;;;;5097644;28;20197;-62
2020/12/17 01:47:14;;;;;;;43.85;22.17;;;4.80;99.90;;;;;;5091173;28;20209;-62
2020/12/17 01:49:41;;;;;;;68.65;27.10;;;4.90;99.90;;;;;;5098739;28;20213;-62
2020/12/17 01:52:08;;;;;;;50.83;23.63;;;4.80;99.90;;;;;;5088821;28;20228;-62
2020/12/17 01:54:35;;;;;;;39.65;23.13;;;4.90;99.90;;;;;;5095075;28;20213;-62
2020/12/17 01:57:05;;;;;;;63.67;26.52;;;4.80;99.90;;;;;;5093212;28;20579;-64
2020/12/17 01:59:47;;;;;;;55.25;24.13;;;4.80;99.90;;;;;;5093457;28;20202;-62
2020/12/17 02:02:25;;;;;;;57.47;28.23;;;4.90;99.90;;;;;;5089892;28;20195;-61
2020/12/17 02:04:52;;;;;;;52.72;26.17;;;4.90;99.90;;;;;;5091586;28;20438;-62
2020/12/17 02:07:36;;;;;;;41.88;22.25;;;4.90;99.90;;;;;;5095240;28;20226;-61
2020/12/17 02:10:03;;;;;;;50.90;26.60;;;4.90;99.90;;;;;;5095525;28;20247;-63
2020/12/17 02:12:48;;;;;;;55.75;25.75;;;4.90;99.90;;;;;;5092528;28;20519;-62
2020/12/17 02:15:21;;;;;;;60.33;26.88;;;4.90;99.90;;;;;;5092027;28;20206;-62
2020/12/17 02:17:51;;;;;;;66.82;25.92;;;4.80;99.90;;;;;;5095247;28;20562;-62
2020/12/17 02:20:20;;;;;;;73.88;30.60;;;4.80;99.90;;;;;;5088972;28;20236;-61
2020/12/17 02:22:47;;;;;;;67.53;29.05;;;4.80;99.90;;;;;;5097216;28;20211;-62
2020/12/17 02:25:15;;;;;;;64.07;30.67;;;4.70;99.90;;;;;;5089963;28;20268;-62
2020/12/17 02:27:43;;;;;;;62.00;27.25;;;4.70;99.90;;;;;;5092475;28;20534;-61
2020/12/17 02:30:11;;;;;;;76.38;33.55;;;4.70;99.90;;;;;;5093087;28;20483;-62
2020/12/17 02:32:39;;;;;;;66.78;32.17;;;4.70;99.90;;;;;;5096777;28;20249;-61
2020/12/17 02:35:08;;;;;;;58.42;28.17;;;4.80;99.90;;;;;;5096937;28;20207;-62
2020/12/17 02:37:36;;;;;;;65.53;30.30;;;4.70;99.90;;;;;;5089304;28;20241;-62
2020/12/17 02:40:04;;;;;;;67.03;29.17;;;4.70;99.90;;;;;;5096413;28;20274;-62
2020/12/17 02:42:31;;;;;;;58.13;29.75;;;4.70;99.90;;;;;;5094153;28;20211;-62
2020/12/17 02:44:59;;;;;;;73.30;32.15;;;4.60;99.90;;;;;;5092624;28;20209;-61
2020/12/17 02:47:25;;;;;;;67.30;33.53;;;4.70;99.90;;;;;;5091305;28;20206;-62
2020/12/17 02:49:52;;;;;;;52.90;29.05;;;4.70;99.90;;;;;;5092172;28;20220;-62
2020/12/17 02:52:19;;;;;;;65.97;34.25;;;4.80;99.90;;;;;;5097023;28;20217;-61
2020/12/17 02:54:46;;;;;;;66.63;32.65;;;4.70;99.90;;;;;;5092126;28;20206;-61
2020/12/17 02:57:13;;;;;;;69.43;32.30;;;4.70;99.90;;;;;;5089350;28;20240;-61
2020/12/17 02:59:40;;;;;;;62.90;30.77;;;4.60;99.90;;;;;;5092505;28;20403;-60
2020/12/17 03:02:07;;;;;;;67.10;29.77;;;4.60;99.90;;;;;;5096885;28;20264;-61
2020/12/17 03:04:34;;;;;;;62.97;28.92;;;4.60;99.90;;;;;;5097086;28;20216;-61
2020/12/17 03:07:01;;;;;;;61.55;30.55;;;4.60;99.90;;;;;;5094778;28;20212;-61
2020/12/17 03:09:28;;;;;;;52.67;28.65;;;4.60;99.90;;;;;;5090064;28;20205;-61
2020/12/17 03:11:55;;;;;;;49.97;28.15;;;4.70;99.90;;;;;;5091643;28;20213;-61
2020/12/17 03:14:22;;;;;;;46.33;23.83;;;4.60;99.90;;;;;;5091823;28;20420;-61
2020/12/17 03:16:49;;;;;;;44.67;26.27;;;4.60;99.90;;;;;;5094970;28;20205;-62
2020/12/17 03:19:17;;;;;;;58.50;31.17;;;4.70;99.90;;;;;;5096376;28;20654;-61
2020/12/17 03:21:44;;;;;;;46.65;26.63;;;4.60;99.90;;;;;;5090206;28;20523;-62
2020/12/17 03:24:11;;;;;;;57.85;32.45;;;4.60;99.90;;;;;;5094525;28;20209;-61
2020/12/17 03:26:38;;;;;;;47.97;25.75;;;4.60;99.90;;;;;;5093966;28;20268;-61
2020/12/17 03:29:05;;;;;;;43.13;28.98;;;4.60;99.90;;;;;;5090027;28;20213;-61
2020/12/17 03:31:32;;;;;;;47.50;26.95;;;4.60;99.90;;;;;;5089652;28;20573;-61
2020/12/17 03:33:59;;;;;;;58.65;28.00;;;4.60;99.90;;;;;;5096745;28;20230;-61
2020/12/17 03:36:26;;;;;;;48.25;27.25;;;4.60;99.90;;;;;;5093435;28;20505;-61
2020/12/17 03:38:53;;;;;;;49.45;26.63;;;4.60;99.90;;;;;;5094832;28;20217;-61
2020/12/17 03:41:20;;;;;;;54.97;28.25;;;4.60;99.90;;;;;;5091887;28;20234;-61
2020/12/17 03:43:48;;;;;;;48.47;25.95;;;4.60;99.90;;;;;;5088969;28;20439;-62
2020/12/17 03:46:15;;;;;;;42.80;26.17;;;4.60;99.90;;;;;;5092209;28;20298;-61
2020/12/17 03:48:42;;;;;;;54.55;27.50;;;4.60;99.90;;;;;;5097759;28;20243;-62
2020/12/17 03:51:09;;;;;;;59.47;26.88;;;4.60;99.90;;;;;;5095625;28;20629;-62
2020/12/17 03:53:36;;;;;;;43.30;26.55;;;4.50;99.90;;;;;;5097371;28;20208;-61
2020/12/17 03:56:03;;;;;;;46.63;27.15;;;4.50;99.90;;;;;;5095915;28;20212;-62
2020/12/17 03:58:30;;;;;;;67.78;28.50;;;4.60;99.90;;;;;;5090663;28;20425;-62
2020/12/17 04:00:57;;;;;;;43.67;25.20;;;4.60;99.90;;;;;;5094719;28;20200;-62
2020/12/17 04:03:24;;;;;;;46.50;24.60;;;4.60;99.90;;;;;;5092769;28;20205;-62
2020/12/17 04:05:51;;;;;;;45.78;25.63;;;4.60;99.90;;;;;;5091670;28;20253;-63
2020/12/17 04:08:18;;;;;;;47.85;25.17;;;4.60;99.90;;;;;;5093461;28;20221;-61
2020/12/17 04:10:45;;;;;;;57.10;25.23;;;4.50;99.90;;;;;;5094258;28;20217;-61
2020/12/17 04:13:12;;;;;;;42.78;25.25;;;4.50;99.90;;;;;;5092658;28;20211;-62
2020/12/17 04:15:39;;;;;;;56.13;26.55;;;4.50;99.90;;;;;;5088751;28;20248;-63
2020/12/17 04:18:06;;;;;;;55.63;29.42;;;4.60;99.90;;;;;;5091134;28;20233;-62
2020/12/17 04:20:33;;;;;;;47.38;26.95;;;4.50;99.90;;;;;;5094194;28;20629;-62
2020/12/17 04:23:00;;;;;;;48.30;25.58;;;4.50;99.90;;;;;;5091677;28;20209;-62
2020/12/17 04:25:27;;;;;;;42.55;21.88;;;4.50;99.90;;;;;;5084256;28;20207;-62
2020/12/17 04:27:54;;;;;;;48.85;23.58;;;4.50;99.90;;;;;;5095793;28;20209;-63
2020/12/17 04:30:21;;;;;;;40.20;26.27;;;4.50;99.90;;;;;;5097193;28;20212;-61
2020/12/17 04:32:48;;;;;;;54.85;23.67;;;4.50;99.90;;;;;;5089730;28;20222;-61
2020/12/17 04:35:16;;;;;;;46.72;26.17;;;5.10;99.90;;;;;;5095135;28;20236;-62
2020/12/17 04:37:43;;;;;;;42.83;21.52;;;4.50;99.90;;;;;;5088783;28;20805;-62
2020/12/17 04:40:09;;;;;;;41.92;23.50;;;4.40;99.90;;;;;;5092905;28;20206;-61
2020/12/17 04:42:36;;;;;;;53.03;26.27;;;4.40;99.90;;;;;;5094229;28;20242;-62
2020/12/17 04:45:04;;;;;;;44.85;24.83;;;4.40;99.90;;;;;;5096928;28;20210;-62
2020/12/17 04:47:31;;;;;;;41.72;22.33;;;4.30;99.90;;;;;;5093292;28;20255;-61
2020/12/17 04:50:07;;;;;;;40.67;23.38;;;4.30;99.90;;;;;;5094864;28;20214;-62
2020/12/17 04:52:37;;;;;;;55.60;28.35;;;4.30;99.90;;;;;;5092495;28;20263;-61
2020/12/17 04:55:06;;;;;;;41.85;22.67;;;4.30;99.90;;;;;;5094070;28;20205;-61
2020/12/17 04:57:33;;;;;;;49.72;22.73;;;4.30;99.90;;;;;;5094651;28;20229;-62
2020/12/17 05:00:00;;;;;;;43.78;23.85;;;4.40;99.90;;;;;;5095473;28;20206;-62
2020/12/17 05:02:27;;;;;;;49.80;23.98;;;4.30;99.90;;;;;;5096933;28;20206;-62
2020/12/17 05:04:54;;;;;;;50.67;25.70;;;4.30;99.90;;;;;;5099692;28;20372;-61
2020/12/17 05:07:23;;;;;;;45.75;25.35;;;4.30;99.90;;;;;;5098762;28;20225;-62
2020/12/17 05:09:51;;;;;;;52.53;23.13;;;4.20;99.90;;;;;;5096396;28;20597;-62
2020/12/17 05:12:19;;;;;;;43.40;21.98;;;4.30;99.90;;;;;;5092094;28;20205;-61
2020/12/17 05:14:48;;;;;;;47.15;25.98;;;4.30;99.90;;;;;;5098853;28;20206;-61
2020/12/17 05:17:15;;;;;;;37.85;23.42;;;4.30;99.90;;;;;;5097410;28;20613;-62
2020/12/17 05:19:44;;;;;;;45.05;23.67;;;4.20;99.90;;;;;;5095661;28;20245;-61
2020/12/17 05:22:14;;;;;;;44.60;24.65;;;4.20;99.90;;;;;;5095295;28;20281;-61
2020/12/17 05:24:45;;;;;;;40.83;23.20;;;4.20;99.90;;;;;;5098174;28;20227;-61
2020/12/17 05:27:13;;;;;;;42.33;26.92;;;4.20;99.90;;;;;;5091323;28;20273;-62
2020/12/17 05:29:41;;;;;;;33.58;22.83;;;4.20;99.90;;;;;;5093229;28;20242;-62
2020/12/17 05:32:13;;;;;;;39.30;25.92;;;4.20;99.90;;;;;;5093988;28;20364;-62
2020/12/17 05:34:40;;;;;;;38.72;24.80;;;4.20;99.90;;;;;;5095764;28;20254;-61
2020/12/17 05:37:07;;;;;;;50.83;23.08;;;4.20;99.90;;;;;;5095309;28;20246;-61
2020/12/17 05:39:42;;;;;;;43.80;23.98;;;4.20;99.90;;;;;;5096987;28;20269;-62
2020/12/17 05:42:13;;;;;;;41.70;23.88;;;4.20;99.90;;;;;;5095583;28;20478;-61
2020/12/17 05:44:40;;;;;;;44.00;27.17;;;4.20;99.90;;;;;;5094659;28;20240;-62
2020/12/17 05:47:13;;;;;;;44.67;25.48;;;4.20;99.90;;;;;;5093299;28;20202;-61
2020/12/17 05:49:40;;;;;;;43.83;24.08;;;4.20;99.90;;;;;;5095927;28;20532;-61
2020/12/17 05:52:17;;;;;;;37.80;24.90;;;4.20;99.90;;;;;;5093258;28;20527;-62
2020/12/17 05:54:50;;;;;;;42.13;23.92;;;4.20;99.90;;;;;;5098463;28;20231;-62
2020/12/17 05:57:18;;;;;;;42.22;24.23;;;4.20;99.90;;;;;;5097681;28;20388;-61
2020/12/17 05:59:58;;;;;;;43.38;22.08;;;4.20;99.90;;;;;;5093995;28;20481;-62
2020/12/17 06:02:30;;;;;;;43.95;25.90;;;4.20;99.90;;;;;;5090866;28;20214;-61
2020/12/17 06:05:14;;;;;;;44.50;24.63;;;4.20;99.90;;;;;;5094208;28;20198;-61
2020/12/17 06:07:40;;;;;;;40.70;22.58;;;4.20;99.90;;;;;;5097618;28;20208;-61
2020/12/17 06:10:24;;;;;;;41.92;25.23;;;4.20;99.90;;;;;;5090733;28;20211;-61
2020/12/17 06:12:53;;;;;;;37.40;23.38;;;4.20;99.90;;;;;;5082768;28;20204;-61
2020/12/17 06:15:24;;;;;;;37.55;23.33;;;4.20;99.90;;;;;;5087213;28;20303;-62
2020/12/17 06:17:55;;;;;;;32.17;23.42;;;4.20;99.90;;;;;;5081359;28;20267;-61
2020/12/17 06:20:25;;;;;;;33.47;20.05;;;4.20;99.90;;;;;;5092312;28;20250;-61
2020/12/17 06:23:06;;;;;;;41.50;25.80;;;4.20;99.90;;;;;;5096190;28;20233;-61
2020/12/17 06:25:36;;;;;;;39.72;23.77;;;4.20;99.90;;;;;;5098109;28;20212;-65
2020/12/17 06:28:03;;;;;;;38.42;21.83;;;4.20;99.90;;;;;;5097395;28;20249;-61
2020/12/17 06:30:36;;;;;;;33.97;20.15;;;4.20;99.90;;;;;;5078543;28;20438;-62
2020/12/17 06:33:05;;;;;;;35.65;19.90;;;4.20;99.90;;;;;;5098207;28;20245;-62
2020/12/17 06:35:54;;;;;;;41.63;22.48;;;4.20;99.90;;;;;;5096348;28;20223;-62
2020/12/17 06:38:24;;;;;;;38.40;21.25;;;4.10;99.90;;;;;;5083228;28;20228;-62
2020/12/17 06:40:51;;;;;;;41.17;18.65;;;4.20;99.90;;;;;;5078604;28;20210;-62
2020/12/17 06:43:36;;;;;;;35.20;20.10;;;4.20;99.90;;;;;;5084289;28;20194;-61
2020/12/17 06:46:04;;;;;;;41.33;21.98;;;4.10;99.90;;;;;;5094433;28;20358;-62
2020/12/17 06:48:39;;;;;;;36.40;20.63;;;4.10;99.90;;;;;;5086144;28;20411;-62
2020/12/17 06:51:31;;;;;;;35.97;21.60;;;4.00;99.90;;;;;;5097798;28;20215;-62
2020/12/17 06:54:03;;;;;;;35.90;19.67;;;4.00;99.90;;;;;;5090634;28;20208;-62
2020/12/17 06:56:29;;;;;;;34.72;20.52;;;4.00;99.90;;;;;;5093072;28;20209;-62
2020/12/17 06:59:27;;;;;;;33.63;18.67;;;4.00;99.90;;;;;;5033823;28;20308;-62
2020/12/17 07:01:53;;;;;;;39.35;17.00;;;4.10;99.90;;;;;;5087626;28;20427;-61
2020/12/17 07:04:43;;;;;;;30.80;19.42;;;4.10;99.90;;;;;;5097034;28;20202;-63
2020/12/17 07:07:19;;;;;;;28.38;17.45;;;4.10;99.90;;;;;;5092096;28;20206;-61
2020/12/17 07:09:53;;;;;;;27.73;16.42;;;4.00;99.90;;;;;;5094014;28;20209;-61
2020/12/17 07:12:35;;;;;;;27.95;17.73;;;4.10;99.90;;;;;;5081417;28;20210;-62
2020/12/17 07:15:26;;;;;;;29.63;18.17;;;4.10;99.90;;;;;;5085771;28;20515;-62
2020/12/17 07:17:52;;;;;;;31.77;16.30;;;4.20;99.90;;;;;;5086714;28;20294;-62
2020/12/17 07:20:30;;;;;;;31.60;18.23;;;4.20;99.90;;;;;;5083885;28;20296;-61
2020/12/17 07:22:57;;;;;;;33.42;19.05;;;4.30;99.90;;;;;;5093737;28;20206;-61
2020/12/17 07:25:36;;;;;;;34.38;18.33;;;4.30;99.90;;;;;;5096854;28;20582;-61
2020/12/17 07:28:03;;;;;;;28.80;17.00;;;4.30;99.90;;;;;;5094258;28;20448;-61
2020/12/17 07:30:29;;;;;;;25.67;16.50;;;4.30;99.90;;;;;;5096594;28;20216;-62
2020/12/17 07:32:56;;;;;;;30.52;16.13;;;4.30;99.90;;;;;;5090065;28;20240;-61
2020/12/17 07:35:27;;;;;;;31.52;18.58;;;4.40;99.90;;;;;;5095090;28;20205;-61
2020/12/17 07:37:59;;;;;;;34.35;19.00;;;4.40;99.90;;;;;;5090731;28;20486;-62
2020/12/17 07:40:33;;;;;;;38.22;17.65;;;4.40;99.90;;;;;;5082185;28;20210;-63
2020/12/17 07:43:07;;;;;;;34.38;18.45;;;4.40;99.90;;;;;;5093232;28;20204;-64
2020/12/17 07:45:51;;;;;;;30.30;18.33;;;4.30;99.90;;;;;;5089467;28;20273;-62
2020/12/17 07:48:49;;;;;;;30.02;15.73;;;4.20;99.90;;;;;;5095775;28;20209;-63
2020/12/17 07:51:16;;;;;;;29.25;15.00;;;4.10;99.90;;;;;;5089753;28;20411;-63
2020/12/17 07:53:50;;;;;;;26.80;14.43;;;4.10;99.90;;;;;;5081650;28;20206;-61
2020/12/17 07:56:21;;;;;;;22.83;15.77;;;4.10;99.90;;;;;;5096456;28;20211;-60
2020/12/17 07:58:51;;;;;;;31.55;18.17;;;4.00;99.90;;;;;;5096173;28;20233;-62
2020/12/17 08:01:18;;;;;;;25.15;14.43;;;4.00;99.90;;;;;;5096272;28;20208;-62
2020/12/17 08:03:51;;;;;;;31.92;17.63;;;4.00;99.90;;;;;;5096083;28;20236;-62
2020/12/17 08:06:21;;;;;;;24.55;15.20;;;4.00;99.90;;;;;;5085680;28;20453;-62
2020/12/17 08:08:53;;;;;;;30.05;14.90;;;4.00;99.90;;;;;;5081390;28;20205;-63
2020/12/17 08:11:31;;;;;;;30.67;16.27;;;4.10;99.90;;;;;;5084866;28;20201;-63
2020/12/17 08:14:03;;;;;;;32.80;16.23;;;3.90;99.90;;;;;;5077315;28;20217;-63
2020/12/17 08:16:32;;;;;;;22.27;13.63;;;4.00;99.90;;;;;;5078866;28;20457;-62
2020/12/17 08:19:01;;;;;;;21.92;14.68;;;4.10;99.90;;;;;;5093018;28;20243;-62
2020/12/17 08:21:28;;;;;;;37.70;17.15;;;4.10;99.90;;;;;;5091460;28;20535;-61
2020/12/17 08:23:56;;;;;;;23.40;15.82;;;4.10;99.90;;;;;;5098921;28;20208;-62
2020/12/17 08:26:29;;;;;;;23.50;15.20;;;4.10;99.90;;;;;;5091062;28;20215;-62
2020/12/17 08:28:56;;;;;;;25.50;13.95;;;4.10;99.90;;;;;;5097132;28;20220;-62
2020/12/17 08:31:28;;;;;;;25.75;17.17;;;4.10;99.90;;;;;;5100904;28;20231;-62
2020/12/17 08:33:58;;;;;;;17.58;12.00;;;4.10;99.90;;;;;;5086316;28;20457;-61
2020/12/17 08:36:27;;;;;;;29.83;16.65;;;4.00;99.90;;;;;;5090868;28;20305;-61
2020/12/17 08:38:57;;;;;;;23.55;13.73;;;3.90;99.90;;;;;;5094671;28;20234;-63
2020/12/17 08:41:29;;;;;;;32.08;15.60;;;3.90;99.90;;;;;;5098310;28;20632;-63
2020/12/17 08:44:05;;;;;;;27.13;13.60;;;3.90;99.90;;;;;;5096075;28;20493;-62
2020/12/17 08:46:48;;;;;;;33.50;16.33;;;3.90;99.90;;;;;;5096255;28;20275;-63
2020/12/17 08:49:20;;;;;;;22.75;14.88;;;4.00;99.90;;;;;;5088223;28;20217;-63
2020/12/17 08:51:47;;;;;;;19.15;13.00;;;4.10;99.90;;;;;;5097796;28;20218;-62
2020/12/17 08:54:33;;;;;;;29.65;16.75;;;4.10;99.90;;;;;;5099120;28;20230;-62
2020/12/17 08:57:08;;;;;;;19.67;13.35;;;4.10;99.90;;;;;;5094004;28;20468;-62
2020/12/17 08:59:40;;;;;;;24.23;13.88;;;4.20;99.90;;;;;;5098891;28;20255;-61
2020/12/17 09:02:06;;;;;;;25.15;14.82;;;4.30;99.90;;;;;;5088204;28;20234;-62
2020/12/17 09:04:33;;;;;;;30.83;16.33;;;4.20;99.90;;;;;;5099029;28;20492;-62
2020/12/17 09:07:02;;;;;;;26.63;17.38;;;4.20;99.90;;;;;;5090162;28;20257;-62
2020/12/17 09:09:30;;;;;;;29.63;17.75;;;4.20;99.90;;;;;;5083898;28;20548;-64
2020/12/17 09:12:06;;;;;;;35.53;17.20;;;4.20;99.90;;;;;;5080790;28;20651;-62
2020/12/17 09:14:36;;;;;;;23.73;14.90;;;4.30;99.90;;;;;;5094583;28;20231;-62
2020/12/17 09:17:10;;;;;;;26.85;16.52;;;4.40;99.90;;;;;;5100292;28;20209;-61
2020/12/17 09:19:37;;;;;;;24.70;14.85;;;4.40;99.90;;;;;;5096062;28;20248;-62
2020/12/17 09:22:04;;;;;;;27.58;15.23;;;4.50;99.90;;;;;;5096984;28;20661;-63
2020/12/17 09:24:39;;;;;;;20.85;12.88;;;4.60;99.90;;;;;;5088706;28;20206;-62
2020/12/17 09:27:17;;;;;;;22.80;14.15;;;4.50;99.90;;;;;;5092247;28;20213;-61
2020/12/17 09:30:06;;;;;;;22.13;11.80;;;4.50;99.90;;;;;;5097628;28;20208;-63
2020/12/17 09:32:35;;;;;;;25.77;14.48;;;4.50;99.90;;;;;;5097107;28;20273;-62
2020/12/17 09:35:06;;;;;;;22.55;12.55;;;4.60;99.90;;;;;;5099145;28;20473;-64
2020/12/17 09:37:34;;;;;;;22.30;15.38;;;4.50;99.90;;;;;;5096682;28;20234;-63
2020/12/17 09:40:04;;;;;;;20.63;13.00;;;4.60;99.90;;;;;;5086881;28;20279;-62
2020/12/17 09:42:30;;;;;;;17.50;12.70;;;4.60;99.90;;;;;;5091729;28;20257;-60
2020/12/17 09:44:57;;;;;;;21.88;11.95;;;4.70;99.90;;;;;;5083912;28;20386;-61
2020/12/17 09:47:32;;;;;;;23.38;11.43;;;4.60;99.90;;;;;;5092947;28;20815;-62
2020/12/17 09:50:11;;;;;;;20.40;11.90;;;4.60;99.90;;;;;;5091707;28;20209;-61
2020/12/17 09:52:37;;;;;;;23.80;12.77;;;4.50;99.90;;;;;;5081861;28;20268;-63
2020/12/17 09:55:05;;;;;;;18.75;11.70;;;4.60;99.90;;;;;;5097327;28;20304;-61
2020/12/17 09:57:43;;;;;;;26.30;12.50;;;4.50;99.90;;;;;;5091350;28;20303;-63
2020/12/17 10:00:18;;;;;;;30.63;12.95;;;4.70;99.90;;;;;;5096141;28;20202;-62
2020/12/17 10:02:45;;;;;;;21.35;12.95;;;4.70;99.90;;;;;;5088391;28;20206;-62
2020/12/17 10:05:12;;;;;;;20.55;12.40;;;4.70;99.90;;;;;;5097703;28;20287;-61
2020/12/17 10:07:46;;;;;;;16.35;10.95;;;4.60;99.90;;;;;;5087930;28;20202;-61
2020/12/17 10:10:14;;;;;;;26.67;12.32;;;4.70;99.90;;;;;;5088775;28;20223;-61
2020/12/17 10:12:44;;;;;;;20.45;12.48;;;4.70;99.90;;;;;;5081591;28;20213;-63
2020/12/17 10:15:11;;;;;;;23.98;13.48;;;4.80;99.90;;;;;;5082086;28;20207;-61
2020/12/17 10:17:38;;;;;;;24.00;14.27;;;4.70;99.90;;;;;;5095106;28;20205;-62
2020/12/17 10:20:10;;;;;;;24.77;14.50;;;4.70;99.90;;;;;;5087111;28;20268;-61
2020/12/17 10:22:44;;;;;;;20.45;10.40;;;4.70;99.90;;;;;;5096531;28;20201;-62
2020/12/17 10:25:12;;;;;;;21.00;12.27;;;4.70;99.90;;;;;;5094707;28;20214;-61
2020/12/17 10:27:39;;;;;;;24.75;13.80;;;4.80;99.90;;;;;;5097470;28;20306;-63
2020/12/17 10:30:08;;;;;;;14.18;9.75;;;4.80;99.90;;;;;;5096658;28;20582;-62
2020/12/17 10:32:35;;;;;;;17.00;10.80;;;5.00;99.90;;;;;;5090233;28;20388;-63
2020/12/17 10:35:02;;;;;;;20.55;11.45;;;4.80;99.90;;;;;;5090726;28;20202;-61
2020/12/17 10:37:30;;;;;;;14.90;11.25;;;4.80;99.90;;;;;;5092212;28;20224;-60
2020/12/17 10:39:57;;;;;;;31.70;12.82;;;4.90;99.90;;;;;;5094227;28;20416;-61
2020/12/17 10:42:24;;;;;;;15.48;9.98;;;4.90;99.90;;;;;;5087355;28;20678;-62
2020/12/17 10:44:50;;;;;;;22.67;12.43;;;4.80;99.90;;;;;;5089096;28;20214;-62
2020/12/17 10:47:18;;;;;;;19.17;11.93;;;4.90;99.90;;;;;;5085196;28;20560;-62
2020/12/17 10:49:46;;;;;;;19.38;9.68;;;4.90;99.90;;;;;;5079660;28;20207;-61
2020/12/17 10:52:13;;;;;;;19.75;11.30;;;4.90;99.90;;;;;;5079957;28;20229;-61
2020/12/17 10:54:40;;;;;;;20.58;12.27;;;4.90;99.90;;;;;;5078838;28;20743;-62
2020/12/17 10:57:07;;;;;;;19.17;12.25;;;5.00;99.90;;;;;;5082017;28;20220;-61
2020/12/17 10:59:34;;;;;;;25.13;14.00;;;5.00;99.90;;;;;;5086140;28;20267;-62
2020/12/17 11:02:01;;;;;;;18.45;10.77;;;4.70;99.90;;;;;;5095207;28;20520;-62
2020/12/17 11:04:27;;;;;;;24.70;12.00;;;4.80;99.90;;;;;;5085338;28;20248;-61
2020/12/17 11:06:57;;;;;;;20.27;12.52;;;5.00;99.90;;;;;;5089600;28;20212;-61
2020/12/17 11:09:29;;;;;;;24.90;12.52;;;5.10;99.90;;;;;;5090376;28;20210;-61
2020/12/17 11:11:55;;;;;;;17.75;10.95;;;5.00;99.90;;;;;;5089341;28;20210;-62
2020/12/17 11:14:22;;;;;;;19.63;12.27;;;5.00;99.90;;;;;;5092271;28;20206;-62
2020/12/17 11:16:50;;;;;;;20.52;11.32;;;5.00;99.90;;;;;;5094746;28;20229;-63
2020/12/17 11:19:18;;;;;;;15.35;10.60;;;5.10;99.90;;;;;;5095676;28;20296;-62
2020/12/17 11:21:45;;;;;;;18.33;10.02;;;5.10;99.90;;;;;;5084392;28;20235;-62
2020/12/17 11:24:13;;;;;;;22.42;10.25;;;5.10;99.90;;;;;;5097378;28;20269;-61
2020/12/17 11:26:44;;;;;;;18.10;9.60;;;5.10;99.90;;;;;;5090341;28;20206;-62
2020/12/17 11:29:12;;;;;;;18.65;10.15;;;5.10;99.90;;;;;;5087963;28;20209;-60
2020/12/17 11:31:43;;;;;;;21.67;10.48;;;5.00;99.90;;;;;;5091086;28;20232;-60
2020/12/17 11:34:10;;;;;;;17.88;9.52;;;5.20;99.90;;;;;;5079392;28;20547;-61
2020/12/17 11:36:38;;;;;;;19.77;9.65;;;5.20;99.90;;;;;;5095375;28;20208;-61
2020/12/17 11:39:05;;;;;;;15.02;8.00;;;5.10;99.90;;;;;;5096709;28;20225;-61
2020/12/17 11:41:31;;;;;;;19.13;10.63;;;5.20;99.90;;;;;;5090008;28;20210;-61
2020/12/17 11:43:58;;;;;;;18.30;10.48;;;5.20;99.90;;;;;;5093735;28;20219;-60
2020/12/17 11:46:25;;;;;;;17.10;9.10;;;5.10;99.90;;;;;;5083322;28;20205;-61
2020/12/17 11:48:51;;;;;;;17.75;8.70;;;5.20;99.90;;;;;;5084443;28;20497;-60
2020/12/17 11:51:18;;;;;;;16.50;9.35;;;5.20;99.90;;;;;;5092689;28;20210;-62
2020/12/17 11:53:45;;;;;;;19.75;11.50;;;5.30;99.90;;;;;;5086449;28;20214;-61
2020/12/17 11:56:12;;;;;;;20.27;10.35;;;5.20;99.90;;;;;;5083558;28;20294;-61
2020/12/17 11:58:40;;;;;;;18.73;11.68;;;5.20;99.90;;;;;;5080226;28;20838;-60
2020/12/17 12:01:07;;;;;;;23.17;11.93;;;5.30;99.90;;;;;;5082777;28;20269;-60
2020/12/17 12:03:35;;;;;;;18.90;10.07;;;5.20;99.90;;;;;;5079540;28;20213;-61
2020/12/17 12:06:03;;;;;;;22.17;10.75;;;5.20;99.90;;;;;;5089654;28;20212;-62
2020/12/17 12:08:30;;;;;;;17.17;10.25;;;5.20;99.90;;;;;;5094256;28;20415;-61
2020/12/17 12:10:57;;;;;;;14.77;9.40;;;5.20;99.90;;;;;;5096619;28;20212;-61
2020/12/17 12:13:24;;;;;;;29.40;11.32;;;5.20;99.90;;;;;;5091362;28;20214;-61
2020/12/17 12:15:50;;;;;;;13.93;9.63;;;5.10;99.90;;;;;;5089389;28;20294;-60
2020/12/17 12:18:17;;;;;;;14.68;11.02;;;5.20;99.90;;;;;;5090969;28;20263;-60
2020/12/17 12:20:45;;;;;;;23.98;10.07;;;5.20;99.90;;;;;;5092574;28;20243;-61
2020/12/17 12:23:15;;;;;;;14.20;9.90;;;5.20;99.90;;;;;;5091495;28;20223;-61
2020/12/17 12:25:43;;;;;;;19.60;11.50;;;5.20;99.90;;;;;;5092027;28;20521;-61
2020/12/17 12:28:10;;;;;;;30.38;12.38;;;5.10;99.90;;;;;;5082202;28;20305;-60
2020/12/17 12:30:36;;;;;;;14.77;9.40;;;5.10;99.90;;;;;;5079961;28;20213;-61
2020/12/17 12:33:03;;;;;;;17.58;8.90;;;5.10;99.90;;;;;;5078849;28;20235;-60
2020/12/17 12:35:30;;;;;;;15.40;9.70;;;5.10;99.90;;;;;;5077219;28;20248;-61
2020/12/17 12:37:57;;;;;;;23.08;11.93;;;5.10;99.90;;;;;;5079794;28;20211;-61
2020/12/17 12:40:24;;;;;;;16.70;10.13;;;5.20;99.90;;;;;;5087291;28;20202;-61
2020/12/17 12:42:50;;;;;;;19.33;11.00;;;5.10;99.90;;;;;;5077397;28;20293;-62
2020/12/17 12:45:17;;;;;;;24.50;10.50;;;5.10;99.90;;;;;;5076794;28;20210;-69
2020/12/17 12:47:44;;;;;;;16.38;10.35;;;5.10;99.90;;;;;;5080376;28;20243;-62
2020/12/17 12:50:12;;;;;;;20.42;10.68;;;5.10;99.90;;;;;;5080997;28;20213;-61
2020/12/17 12:52:40;;;;;;;16.65;11.40;;;5.10;99.90;;;;;;5080269;28;20213;-61